sensor_id;sensor_type;location;lat;lon;timestamp;P1;P2;P0
20371;PMS7003;42924;37.564;-122.048;2022-09-09T00:04:34;9.40;9.40;7.80
20371;PMS7003;42924;37.564;-122.048;2022-09-09T00:15:29;11.00;10.80;10.00
20371;PMS7003;42924;37.564;-122.048;2022-09-09T00:18:25;6.00;6.00;6.00
20371;PMS7003;42924;37.564;-122.048;2022-09-09T00:21:17;8.60;8.60;7.60
20371;PMS7003;42924;37.564;-122.048;2022-09-09T00:23:55;9.60;9.60;7.80
20371;PMS7003;42924;37.564;-122.048;2022-09-09T00:32:00;11.40;11.40;9.40
20371;PMS7003;42924;37.564;-122.048;2022-09-09T00:34:47;10.00;10.00;8.80
20371;PMS7003;42924;37.564;-122.048;2022-09-09T00:37:23;13.40;10.60;8.80
20371;PMS7003;42924;37.564;-122.048;2022-09-09T00:39:55;10.00;10.00;8.00
20371;PMS7003;42924;37.564;-122.048;2022-09-09T00:42:42;9.00;9.00;8.00
20371;PMS7003;42924;37.564;-122.048;2022-09-09T00:45:36;12.00;12.00;10.00
20371;PMS7003;42924;37.564;-122.048;2022-09-09T00:48:20;10.80;10.80;9.80
20371;PMS7003;42924;37.564;-122.048;2022-09-09T00:51:25;10.40;10.40;9.60
20371;PMS7003;42924;37.564;-122.048;2022-09-09T00:57:03;8.40;8.40;6.40
20371;PMS7003;42924;37.564;-122.048;2022-09-09T00:59:55;11.00;11.00;9.00
20371;PMS7003;42924;37.564;-122.048;2022-09-09T01:05:02;11.40;11.40;10.00
20371;PMS7003;42924;37.564;-122.048;2022-09-09T01:07:40;14.20;13.60;11.40
20371;PMS7003;42924;37.564;-122.048;2022-09-09T01:10:27;10.40;10.40;8.80
20371;PMS7003;42924;37.564;-122.048;2022-09-09T01:13:01;13.00;13.00;11.00
20371;PMS7003;42924;37.564;-122.048;2022-09-09T01:15:37;11.80;11.80;10.40
20371;PMS7003;42924;37.564;-122.048;2022-09-09T01:18:13;11.00;11.00;10.80
20371;PMS7003;42924;37.564;-122.048;2022-09-09T01:21:00;10.80;10.80;8.80
20371;PMS7003;42924;37.564;-122.048;2022-09-09T01:27:23;10.00;10.00;9.00
20371;PMS7003;42924;37.564;-122.048;2022-09-09T01:29:57;10.00;10.00;8.00
20371;PMS7003;42924;37.564;-122.048;2022-09-09T01:37:51;11.40;11.40;8.80
20371;PMS7003;42924;37.564;-122.048;2022-09-09T01:40:21;11.00;11.00;9.00
20371;PMS7003;42924;37.564;-122.048;2022-09-09T01:42:52;8.20;8.20;7.60
20371;PMS7003;42924;37.564;-122.048;2022-09-09T01:45:24;10.60;10.60;9.40
20371;PMS7003;42924;37.564;-122.048;2022-09-09T01:47:56;10.80;10.80;8.40
20371;PMS7003;42924;37.564;-122.048;2022-09-09T01:50:40;8.60;8.00;7.80
20371;PMS7003;42924;37.564;-122.048;2022-09-09T01:53:14;10.00;10.00;9.00
20371;PMS7003;42924;37.564;-122.048;2022-09-09T01:56:11;10.60;10.60;8.80
20371;PMS7003;42924;37.564;-122.048;2022-09-09T01:59:12;12.00;12.00;9.20
20371;PMS7003;42924;37.564;-122.048;2022-09-09T02:02:03;10.60;10.60;9.20
20371;PMS7003;42924;37.564;-122.048;2022-09-09T02:04:54;9.20;9.20;8.60
20371;PMS7003;42924;37.564;-122.048;2022-09-09T02:07:35;10.80;10.80;9.60
20371;PMS7003;42924;37.564;-122.048;2022-09-09T02:13:25;10.80;10.80;8.40
20371;PMS7003;42924;37.564;-122.048;2022-09-09T02:16:00;11.20;11.20;9.20
20371;PMS7003;42924;37.564;-122.048;2022-09-09T02:22:09;9.00;9.00;7.00
20371;PMS7003;42924;37.564;-122.048;2022-09-09T02:24:41;11.00;11.00;9.00
20371;PMS7003;42924;37.564;-122.048;2022-09-09T02:27:17;9.00;9.00;7.20
20371;PMS7003;42924;37.564;-122.048;2022-09-09T02:29:51;11.80;11.80;9.00
20371;PMS7003;42924;37.564;-122.048;2022-09-09T02:32:35;7.00;7.00;5.80
20371;PMS7003;42924;37.564;-122.048;2022-09-09T02:35:13;11.00;11.00;9.00
20371;PMS7003;42924;37.564;-122.048;2022-09-09T02:37:47;10.20;10.20;8.00
20371;PMS7003;42924;37.564;-122.048;2022-09-09T02:40:23;11.40;10.80;9.80
20371;PMS7003;42924;37.564;-122.048;2022-09-09T02:43:00;8.80;8.80;7.40
20371;PMS7003;42924;37.564;-122.048;2022-09-09T02:45:42;9.60;9.60;8.40
20371;PMS7003;42924;37.564;-122.048;2022-09-09T02:54:27;9.40;9.40;7.40
20371;PMS7003;42924;37.564;-122.048;2022-09-09T02:57:21;9.50;9.50;9.00
20371;PMS7003;42924;37.564;-122.048;2022-09-09T02:59:56;10.50;10.50;8.00
20371;PMS7003;42924;37.564;-122.048;2022-09-09T03:02:32;10.75;10.75;8.75
20371;PMS7003;42924;37.564;-122.048;2022-09-09T03:05:06;10.80;10.80;9.20
20371;PMS7003;42924;37.564;-122.048;2022-09-09T03:07:36;11.00;11.00;9.25
20371;PMS7003;42924;37.564;-122.048;2022-09-09T03:10:09;10.80;10.80;9.00
20371;PMS7003;42924;37.564;-122.048;2022-09-09T03:12:42;11.00;11.00;10.20
20371;PMS7003;42924;37.564;-122.048;2022-09-09T03:15:12;12.00;12.00;10.00
20371;PMS7003;42924;37.564;-122.048;2022-09-09T03:17:44;10.80;10.80;9.20
20371;PMS7003;42924;37.564;-122.048;2022-09-09T03:20:16;11.60;11.60;9.80
20371;PMS7003;42924;37.564;-122.048;2022-09-09T03:22:50;10.20;10.20;8.40
20371;PMS7003;42924;37.564;-122.048;2022-09-09T03:25:21;11.00;11.00;8.60
20371;PMS7003;42924;37.564;-122.048;2022-09-09T03:27:56;9.20;9.20;8.00
20371;PMS7003;42924;37.564;-122.048;2022-09-09T03:30:29;10.00;10.00;8.20
20371;PMS7003;42924;37.564;-122.048;2022-09-09T03:33:03;10.40;10.40;8.20
20371;PMS7003;42924;37.564;-122.048;2022-09-09T03:35:33;11.20;11.20;9.40
20371;PMS7003;42924;37.564;-122.048;2022-09-09T03:38:06;11.75;11.75;9.75
20371;PMS7003;42924;37.564;-122.048;2022-09-09T03:40:39;11.20;11.20;8.80
20371;PMS7003;42924;37.564;-122.048;2022-09-09T03:43:13;10.60;10.60;8.60
20371;PMS7003;42924;37.564;-122.048;2022-09-09T03:45:48;9.20;9.20;7.80
20371;PMS7003;42924;37.564;-122.048;2022-09-09T03:48:20;10.00;10.00;8.00
20371;PMS7003;42924;37.564;-122.048;2022-09-09T03:50:52;13.25;11.25;9.25
20371;PMS7003;42924;37.564;-122.048;2022-09-09T03:53:27;9.25;9.25;6.00
20371;PMS7003;42924;37.564;-122.048;2022-09-09T03:56:04;10.50;10.50;8.75
20371;PMS7003;42924;37.564;-122.048;2022-09-09T03:58:37;8.00;8.00;7.40
20371;PMS7003;42924;37.564;-122.048;2022-09-09T04:01:12;10.75;10.75;8.75
20371;PMS7003;42924;37.564;-122.048;2022-09-09T04:03:47;9.60;9.60;8.60
20371;PMS7003;42924;37.564;-122.048;2022-09-09T04:06:17;11.00;11.00;8.60
20371;PMS7003;42924;37.564;-122.048;2022-09-09T04:08:50;10.20;10.20;9.00
20371;PMS7003;42924;37.564;-122.048;2022-09-09T04:11:22;11.20;11.20;10.00
20371;PMS7003;42924;37.564;-122.048;2022-09-09T04:13:56;9.40;9.40;7.40
20371;PMS7003;42924;37.564;-122.048;2022-09-09T04:16:27;8.20;8.20;7.00
20371;PMS7003;42924;37.564;-122.048;2022-09-09T04:19:00;9.40;9.40;7.40
20371;PMS7003;42924;37.564;-122.048;2022-09-09T04:21:33;9.20;9.20;8.00
20371;PMS7003;42924;37.564;-122.048;2022-09-09T04:24:02;9.75;9.75;8.00
20371;PMS7003;42924;37.564;-122.048;2022-09-09T04:26:36;8.75;8.75;8.00
20371;PMS7003;42924;37.564;-122.048;2022-09-09T04:29:08;9.50;9.50;8.75
20371;PMS7003;42924;37.564;-122.048;2022-09-09T04:31:40;8.75;8.75;7.25
20371;PMS7003;42924;37.564;-122.048;2022-09-09T04:34:11;8.00;8.00;5.75
20371;PMS7003;42924;37.564;-122.048;2022-09-09T04:36:42;10.50;10.50;9.00
20371;PMS7003;42924;37.564;-122.048;2022-09-09T04:39:15;11.00;11.00;9.00
20371;PMS7003;42924;37.564;-122.048;2022-09-09T04:41:48;6.00;6.00;5.50
20371;PMS7003;42924;37.564;-122.048;2022-09-09T04:44:22;9.60;9.60;8.20
20371;PMS7003;42924;37.564;-122.048;2022-09-09T04:46:53;10.25;10.25;9.00
20371;PMS7003;42924;37.564;-122.048;2022-09-09T04:49:24;11.00;10.00;8.00
20371;PMS7003;42924;37.564;-122.048;2022-09-09T04:52:02;9.25;9.25;8.25
20371;PMS7003;42924;37.564;-122.048;2022-09-09T04:54:36;10.00;10.00;8.75
20371;PMS7003;42924;37.564;-122.048;2022-09-09T04:57:07;9.75;9.75;8.00
20371;PMS7003;42924;37.564;-122.048;2022-09-09T04:59:47;10.50;10.50;8.50
20371;PMS7003;42924;37.564;-122.048;2022-09-09T05:02:18;10.00;10.00;8.50
20371;PMS7003;42924;37.564;-122.048;2022-09-09T05:04:51;9.50;9.50;8.25
20371;PMS7003;42924;37.564;-122.048;2022-09-09T05:07:23;11.40;11.40;10.20
20371;PMS7003;42924;37.564;-122.048;2022-09-09T05:09:55;8.75;8.75;8.25
20371;PMS7003;42924;37.564;-122.048;2022-09-09T05:12:25;11.00;11.00;9.25
20371;PMS7003;42924;37.564;-122.048;2022-09-09T05:14:58;10.00;10.00;8.00
20371;PMS7003;42924;37.564;-122.048;2022-09-09T05:17:31;10.00;10.00;8.00
20371;PMS7003;42924;37.564;-122.048;2022-09-09T05:20:04;9.25;9.25;7.25
20371;PMS7003;42924;37.564;-122.048;2022-09-09T05:22:37;9.50;9.50;7.50
20371;PMS7003;42924;37.564;-122.048;2022-09-09T05:25:09;10.25;10.25;9.00
20371;PMS7003;42924;37.564;-122.048;2022-09-09T05:27:40;9.00;9.00;7.00
20371;PMS7003;42924;37.564;-122.048;2022-09-09T05:30:10;9.75;9.75;8.25
20371;PMS7003;42924;37.564;-122.048;2022-09-09T05:32:41;10.00;10.00;9.00
20371;PMS7003;42924;37.564;-122.048;2022-09-09T05:35:19;9.50;9.50;8.00
20371;PMS7003;42924;37.564;-122.048;2022-09-09T05:37:53;11.50;11.50;9.00
20371;PMS7003;42924;37.564;-122.048;2022-09-09T05:40:29;10.00;10.00;8.00
20371;PMS7003;42924;37.564;-122.048;2022-09-09T05:42:59;10.00;10.00;9.00
20371;PMS7003;42924;37.564;-122.048;2022-09-09T05:45:32;7.25;7.25;6.25
20371;PMS7003;42924;37.564;-122.048;2022-09-09T05:48:04;12.50;11.00;9.00
20371;PMS7003;42924;37.564;-122.048;2022-09-09T05:50:37;9.00;9.00;8.00
20371;PMS7003;42924;37.564;-122.048;2022-09-09T05:53:10;9.50;9.50;8.00
20371;PMS7003;42924;37.564;-122.048;2022-09-09T05:55:44;11.00;11.00;9.00
20371;PMS7003;42924;37.564;-122.048;2022-09-09T05:58:14;10.00;10.00;9.00
20371;PMS7003;42924;37.564;-122.048;2022-09-09T06:00:45;8.25;8.25;7.25
20371;PMS7003;42924;37.564;-122.048;2022-09-09T06:03:16;8.25;8.25;7.00
20371;PMS7003;42924;37.564;-122.048;2022-09-09T06:05:56;10.00;10.00;8.50
20371;PMS7003;42924;37.564;-122.048;2022-09-09T06:08:34;8.50;8.50;7.50
20371;PMS7003;42924;37.564;-122.048;2022-09-09T06:11:08;12.75;12.75;10.75
20371;PMS7003;42924;37.564;-122.048;2022-09-09T06:13:45;9.25;9.25;8.00
20371;PMS7003;42924;37.564;-122.048;2022-09-09T06:16:19;9.50;9.50;8.00
20371;PMS7003;42924;37.564;-122.048;2022-09-09T06:18:56;8.00;8.00;7.25
20371;PMS7003;42924;37.564;-122.048;2022-09-09T06:21:31;10.00;10.00;7.67
20371;PMS7003;42924;37.564;-122.048;2022-09-09T06:24:07;9.50;9.50;8.25
20371;PMS7003;42924;37.564;-122.048;2022-09-09T06:26:43;9.00;9.00;7.00
20371;PMS7003;42924;37.564;-122.048;2022-09-09T06:29:27;12.25;12.25;9.50
20371;PMS7003;42924;37.564;-122.048;2022-09-09T06:31:57;9.25;9.25;7.75
20371;PMS7003;42924;37.564;-122.048;2022-09-09T06:34:28;11.00;11.00;9.00
20371;PMS7003;42924;37.564;-122.048;2022-09-09T06:37:00;10.00;10.00;7.75
20371;PMS7003;42924;37.564;-122.048;2022-09-09T06:39:38;9.50;9.50;8.00
20371;PMS7003;42924;37.564;-122.048;2022-09-09T06:42:11;9.00;9.00;7.50
20371;PMS7003;42924;37.564;-122.048;2022-09-09T06:45:23;9.75;9.75;8.75
20371;PMS7003;42924;37.564;-122.048;2022-09-09T06:47:58;13.00;11.75;9.75
20371;PMS7003;42924;37.564;-122.048;2022-09-09T06:50:36;11.50;11.50;10.00
20371;PMS7003;42924;37.564;-122.048;2022-09-09T06:53:09;11.75;11.75;10.50
20371;PMS7003;42924;37.564;-122.048;2022-09-09T06:55:44;11.00;11.00;8.00
20371;PMS7003;42924;37.564;-122.048;2022-09-09T06:58:15;9.50;9.50;8.50
20371;PMS7003;42924;37.564;-122.048;2022-09-09T07:00:46;11.75;11.75;10.00
20371;PMS7003;42924;37.564;-122.048;2022-09-09T07:03:19;9.50;9.50;7.75
20371;PMS7003;42924;37.564;-122.048;2022-09-09T07:05:54;13.00;13.00;12.00
20371;PMS7003;42924;37.564;-122.048;2022-09-09T07:08:28;14.25;14.25;11.75
20371;PMS7003;42924;37.564;-122.048;2022-09-09T07:11:02;13.25;13.25;11.00
20371;PMS7003;42924;37.564;-122.048;2022-09-09T07:13:41;11.25;11.25;9.50
20371;PMS7003;42924;37.564;-122.048;2022-09-09T07:16:11;14.25;14.25;12.00
20371;PMS7003;42924;37.564;-122.048;2022-09-09T07:18:43;13.50;13.50;10.25
20371;PMS7003;42924;37.564;-122.048;2022-09-09T07:21:15;16.50;16.50;13.00
20371;PMS7003;42924;37.564;-122.048;2022-09-09T07:23:45;9.75;9.75;8.00
20371;PMS7003;42924;37.564;-122.048;2022-09-09T07:26:17;14.00;14.00;10.25
20371;PMS7003;42924;37.564;-122.048;2022-09-09T07:28:51;14.00;14.00;11.00
20371;PMS7003;42924;37.564;-122.048;2022-09-09T07:31:24;14.25;14.00;11.50
20371;PMS7003;42924;37.564;-122.048;2022-09-09T07:33:59;13.25;13.25;11.25
20371;PMS7003;42924;37.564;-122.048;2022-09-09T07:36:31;16.25;16.25;10.75
20371;PMS7003;42924;37.564;-122.048;2022-09-09T07:39:07;14.25;14.25;11.50
20371;PMS7003;42924;37.564;-122.048;2022-09-09T07:41:48;13.75;13.75;11.25
20371;PMS7003;42924;37.564;-122.048;2022-09-09T07:44:22;15.25;15.25;12.50
20371;PMS7003;42924;37.564;-122.048;2022-09-09T07:47:05;14.00;14.00;11.00
20371;PMS7003;42924;37.564;-122.048;2022-09-09T07:49:51;14.50;14.50;11.00
20371;PMS7003;42924;37.564;-122.048;2022-09-09T07:52:30;11.50;11.50;8.00
20371;PMS7003;42924;37.564;-122.048;2022-09-09T07:55:03;12.25;12.25;10.25
20371;PMS7003;42924;37.564;-122.048;2022-09-09T07:57:37;11.75;11.75;9.25
20371;PMS7003;42924;37.564;-122.048;2022-09-09T08:00:09;14.00;14.00;11.50
20371;PMS7003;42924;37.564;-122.048;2022-09-09T08:02:58;13.00;13.00;10.25
20371;PMS7003;42924;37.564;-122.048;2022-09-09T08:05:31;12.75;12.75;11.00
20371;PMS7003;42924;37.564;-122.048;2022-09-09T08:08:03;15.00;15.00;12.00
20371;PMS7003;42924;37.564;-122.048;2022-09-09T08:10:33;12.75;12.75;10.00
20371;PMS7003;42924;37.564;-122.048;2022-09-09T08:13:03;15.50;15.50;13.50
20371;PMS7003;42924;37.564;-122.048;2022-09-09T08:15:50;11.75;11.75;11.00
20371;PMS7003;42924;37.564;-122.048;2022-09-09T08:18:23;16.75;16.75;12.50
20371;PMS7003;42924;37.564;-122.048;2022-09-09T08:20:53;14.00;13.75;11.25
20371;PMS7003;42924;37.564;-122.048;2022-09-09T08:23:24;16.75;15.00;12.00
20371;PMS7003;42924;37.564;-122.048;2022-09-09T08:26:02;14.25;14.25;12.25
20371;PMS7003;42924;37.564;-122.048;2022-09-09T08:28:37;15.50;15.50;13.50
20371;PMS7003;42924;37.564;-122.048;2022-09-09T08:31:13;3.75;3.75;1.25
20371;PMS7003;42924;37.564;-122.048;2022-09-09T08:33:46;14.50;14.50;12.50
20371;PMS7003;42924;37.564;-122.048;2022-09-09T08:36:21;17.25;17.25;12.25
20371;PMS7003;42924;37.564;-122.048;2022-09-09T08:38:57;14.25;14.25;11.75
20371;PMS7003;42924;37.564;-122.048;2022-09-09T08:50:26;12.75;12.75;10.25
20371;PMS7003;42924;37.564;-122.048;2022-09-09T08:56:04;17.00;17.00;12.75
20371;PMS7003;42924;37.564;-122.048;2022-09-09T08:58:50;18.00;18.00;13.00
20371;PMS7003;42924;37.564;-122.048;2022-09-09T09:07:39;15.00;15.00;11.75
20371;PMS7003;42924;37.564;-122.048;2022-09-09T09:10:41;13.50;13.50;10.25
20371;PMS7003;42924;37.564;-122.048;2022-09-09T09:13:38;15.25;15.25;13.25
20371;PMS7003;42924;37.564;-122.048;2022-09-09T09:16:54;16.75;16.75;13.50
20371;PMS7003;42924;37.564;-122.048;2022-09-09T09:19:30;15.50;15.50;13.50
20371;PMS7003;42924;37.564;-122.048;2022-09-09T09:25:22;14.75;14.75;12.50
20371;PMS7003;42924;37.564;-122.048;2022-09-09T09:28:10;13.75;13.75;10.50
20371;PMS7003;42924;37.564;-122.048;2022-09-09T09:30:56;14.50;14.50;11.00
20371;PMS7003;42924;37.564;-122.048;2022-09-09T09:33:48;12.50;12.50;10.25
20371;PMS7003;42924;37.564;-122.048;2022-09-09T09:36:39;13.25;13.25;9.25
20371;PMS7003;42924;37.564;-122.048;2022-09-09T09:39:29;13.00;13.00;10.25
20371;PMS7003;42924;37.564;-122.048;2022-09-09T09:42:29;14.25;14.25;11.00
20371;PMS7003;42924;37.564;-122.048;2022-09-09T09:45:35;14.00;14.00;11.25
20371;PMS7003;42924;37.564;-122.048;2022-09-09T09:48:36;12.00;12.00;9.25
20371;PMS7003;42924;37.564;-122.048;2022-09-09T09:51:09;12.50;12.00;10.00
20371;PMS7003;42924;37.564;-122.048;2022-09-09T09:53:45;14.00;12.75;11.25
20371;PMS7003;42924;37.564;-122.048;2022-09-09T09:56:27;13.00;13.00;9.25
20371;PMS7003;42924;37.564;-122.048;2022-09-09T09:59:04;12.75;12.75;10.25
20371;PMS7003;42924;37.564;-122.048;2022-09-09T10:01:51;14.00;12.25;10.25
20371;PMS7003;42924;37.564;-122.048;2022-09-09T10:04:24;15.75;15.75;10.75
20371;PMS7003;42924;37.564;-122.048;2022-09-09T10:06:56;12.75;12.75;10.00
20371;PMS7003;42924;37.564;-122.048;2022-09-09T10:09:30;13.00;13.00;10.00
20371;PMS7003;42924;37.564;-122.048;2022-09-09T10:17:56;15.25;13.75;11.75
20371;PMS7003;42924;37.564;-122.048;2022-09-09T10:20:41;12.25;12.25;9.50
20371;PMS7003;42924;37.564;-122.048;2022-09-09T10:37:38;17.25;17.25;13.00
20371;PMS7003;42924;37.564;-122.048;2022-09-09T10:55:33;14.75;14.75;12.25
20371;PMS7003;42924;37.564;-122.048;2022-09-09T10:58:13;17.75;17.75;14.75
20371;PMS7003;42924;37.564;-122.048;2022-09-09T11:00:56;16.75;16.75;12.75
20371;PMS7003;42924;37.564;-122.048;2022-09-09T11:03:34;17.25;17.25;13.00
20371;PMS7003;42924;37.564;-122.048;2022-09-09T11:06:14;17.25;17.25;12.00
20371;PMS7003;42924;37.564;-122.048;2022-09-09T11:08:49;17.50;17.50;14.00
20371;PMS7003;42924;37.564;-122.048;2022-09-09T11:11:29;17.50;17.50;13.50
20371;PMS7003;42924;37.564;-122.048;2022-09-09T11:14:11;15.00;15.00;13.75
20371;PMS7003;42924;37.564;-122.048;2022-09-09T11:17:03;14.25;14.25;12.00
20371;PMS7003;42924;37.564;-122.048;2022-09-09T11:19:40;14.75;14.75;12.25
20371;PMS7003;42924;37.564;-122.048;2022-09-09T11:22:27;17.50;17.50;13.50
20371;PMS7003;42924;37.564;-122.048;2022-09-09T11:25:20;18.75;18.75;14.00
20371;PMS7003;42924;37.564;-122.048;2022-09-09T11:36:48;15.25;15.25;12.50
20371;PMS7003;42924;37.564;-122.048;2022-09-09T11:39:58;15.00;15.00;12.75
20371;PMS7003;42924;37.564;-122.048;2022-09-09T11:42:43;18.00;18.00;14.00
20371;PMS7003;42924;37.564;-122.048;2022-09-09T11:45:19;18.25;18.25;14.00
20371;PMS7003;42924;37.564;-122.048;2022-09-09T11:47:53;19.00;19.00;14.00
20371;PMS7003;42924;37.564;-122.048;2022-09-09T11:53:04;18.75;18.75;14.00
20371;PMS7003;42924;37.564;-122.048;2022-09-09T11:56:00;17.00;17.00;12.25
20371;PMS7003;42924;37.564;-122.048;2022-09-09T11:58:53;17.75;17.75;14.00
20371;PMS7003;42924;37.564;-122.048;2022-09-09T12:01:37;18.00;18.00;14.25
20371;PMS7003;42924;37.564;-122.048;2022-09-09T12:06:50;18.75;17.00;14.00
20371;PMS7003;42924;37.564;-122.048;2022-09-09T12:12:07;17.25;17.25;13.25
20371;PMS7003;42924;37.564;-122.048;2022-09-09T12:20:33;16.25;16.25;11.25
20371;PMS7003;42924;37.564;-122.048;2022-09-09T12:39:49;17.50;17.50;13.25
20371;PMS7003;42924;37.564;-122.048;2022-09-09T12:42:26;17.25;16.75;12.25
20371;PMS7003;42924;37.564;-122.048;2022-09-09T12:44:58;18.50;18.50;14.75
20371;PMS7003;42924;37.564;-122.048;2022-09-09T12:50:38;17.25;17.25;13.50
20371;PMS7003;42924;37.564;-122.048;2022-09-09T12:53:29;15.50;15.50;12.00
20371;PMS7003;42924;37.564;-122.048;2022-09-09T12:56:09;17.00;15.50;12.25
20371;PMS7003;42924;37.564;-122.048;2022-09-09T12:58:51;17.25;17.25;12.50
20371;PMS7003;42924;37.564;-122.048;2022-09-09T13:01:32;12.25;12.25;12.00
20371;PMS7003;42924;37.564;-122.048;2022-09-09T13:04:01;15.50;15.50;10.50
20371;PMS7003;42924;37.564;-122.048;2022-09-09T13:06:35;11.50;11.50;9.50
20371;PMS7003;42924;37.564;-122.048;2022-09-09T13:09:08;15.25;15.25;12.75
20371;PMS7003;42924;37.564;-122.048;2022-09-09T13:11:42;17.00;17.00;13.25
20371;PMS7003;42924;37.564;-122.048;2022-09-09T13:14:21;15.00;15.00;12.75
20371;PMS7003;42924;37.564;-122.048;2022-09-09T13:16:56;16.00;16.00;12.75
20371;PMS7003;42924;37.564;-122.048;2022-09-09T13:19:29;16.00;15.50;13.00
20371;PMS7003;42924;37.564;-122.048;2022-09-09T13:28:03;15.50;14.25;12.00
20371;PMS7003;42924;37.564;-122.048;2022-09-09T13:30:36;14.50;14.50;11.00
20371;PMS7003;42924;37.564;-122.048;2022-09-09T13:38:38;15.75;15.75;12.75
20371;PMS7003;42924;37.564;-122.048;2022-09-09T13:41:24;15.25;15.00;11.50
20371;PMS7003;42924;37.564;-122.048;2022-09-09T13:44:04;17.50;16.00;12.75
20371;PMS7003;42924;37.564;-122.048;2022-09-09T13:46:39;16.50;16.50;14.00
20371;PMS7003;42924;37.564;-122.048;2022-09-09T13:51:49;17.00;16.50;13.50
20371;PMS7003;42924;37.564;-122.048;2022-09-09T13:54:23;15.75;15.75;12.75
20371;PMS7003;42924;37.564;-122.048;2022-09-09T13:56:53;19.25;19.25;15.00
20371;PMS7003;42924;37.564;-122.048;2022-09-09T13:59:24;17.00;17.00;13.00
20371;PMS7003;42924;37.564;-122.048;2022-09-09T14:02:17;18.75;16.75;12.00
20371;PMS7003;42924;37.564;-122.048;2022-09-09T14:04:50;16.50;16.50;13.00
20371;PMS7003;42924;37.564;-122.048;2022-09-09T14:07:42;14.50;14.50;11.00
20371;PMS7003;42924;37.564;-122.048;2022-09-09T14:10:16;15.25;15.25;12.00
20371;PMS7003;42924;37.564;-122.048;2022-09-09T14:12:48;15.25;15.25;13.50
20371;PMS7003;42924;37.564;-122.048;2022-09-09T14:15:19;15.25;15.25;12.75
20371;PMS7003;42924;37.564;-122.048;2022-09-09T14:17:50;17.50;17.25;14.00
20371;PMS7003;42924;37.564;-122.048;2022-09-09T14:20:22;19.50;19.50;15.25
20371;PMS7003;42924;37.564;-122.048;2022-09-09T14:22:53;17.50;17.50;13.25
20371;PMS7003;42924;37.564;-122.048;2022-09-09T14:25:30;18.50;18.50;15.25
20371;PMS7003;42924;37.564;-122.048;2022-09-09T14:28:01;21.00;21.00;15.25
20371;PMS7003;42924;37.564;-122.048;2022-09-09T14:30:40;21.25;21.25;16.75
20371;PMS7003;42924;37.564;-122.048;2022-09-09T14:33:12;16.50;16.50;14.75
20371;PMS7003;42924;37.564;-122.048;2022-09-09T14:35:44;15.75;15.75;12.00
20371;PMS7003;42924;37.564;-122.048;2022-09-09T14:38:18;17.50;17.50;14.75
20371;PMS7003;42924;37.564;-122.048;2022-09-09T14:40:47;20.50;20.50;14.75
20371;PMS7003;42924;37.564;-122.048;2022-09-09T14:43:18;15.00;15.00;11.00
20371;PMS7003;42924;37.564;-122.048;2022-09-09T14:45:57;11.25;11.25;8.50
20371;PMS7003;42924;37.564;-122.048;2022-09-09T14:48:34;21.00;21.00;16.00
20371;PMS7003;42924;37.564;-122.048;2022-09-09T14:51:11;18.25;18.25;13.75
20371;PMS7003;42924;37.564;-122.048;2022-09-09T14:53:46;19.50;19.50;15.75
20371;PMS7003;42924;37.564;-122.048;2022-09-09T14:56:17;24.25;23.00;17.75
20371;PMS7003;42924;37.564;-122.048;2022-09-09T14:58:53;17.00;17.00;14.00
20371;PMS7003;42924;37.564;-122.048;2022-09-09T15:01:27;21.75;20.00;16.00
20371;PMS7003;42924;37.564;-122.048;2022-09-09T15:03:58;15.00;15.00;11.25
20371;PMS7003;42924;37.564;-122.048;2022-09-09T15:06:33;19.00;17.25;13.50
20371;PMS7003;42924;37.564;-122.048;2022-09-09T15:09:08;19.25;19.25;14.00
20371;PMS7003;42924;37.564;-122.048;2022-09-09T15:11:41;17.75;17.75;14.25
20371;PMS7003;42924;37.564;-122.048;2022-09-09T15:14:13;15.50;15.50;12.75
20371;PMS7003;42924;37.564;-122.048;2022-09-09T15:16:53;4.00;4.00;1.00
20371;PMS7003;42924;37.564;-122.048;2022-09-09T15:19:24;8.25;8.25;5.75
20371;PMS7003;42924;37.564;-122.048;2022-09-09T15:21:58;10.00;10.00;9.00
20371;PMS7003;42924;37.564;-122.048;2022-09-09T15:24:28;14.00;12.75;9.50
20371;PMS7003;42924;37.564;-122.048;2022-09-09T15:26:58;11.50;11.50;10.00
20371;PMS7003;42924;37.564;-122.048;2022-09-09T15:29:29;11.00;11.00;9.50
20371;PMS7003;42924;37.564;-122.048;2022-09-09T15:31:59;12.50;12.50;10.50
20371;PMS7003;42924;37.564;-122.048;2022-09-09T15:34:29;10.50;10.50;9.00
20371;PMS7003;42924;37.564;-122.048;2022-09-09T15:37:02;13.00;13.00;10.00
20371;PMS7003;42924;37.564;-122.048;2022-09-09T15:39:33;14.00;14.00;11.00
20371;PMS7003;42924;37.564;-122.048;2022-09-09T15:42:06;12.75;12.75;10.25
20371;PMS7003;42924;37.564;-122.048;2022-09-09T15:44:43;14.00;14.00;11.00
20371;PMS7003;42924;37.564;-122.048;2022-09-09T15:47:17;12.00;12.00;9.25
20371;PMS7003;42924;37.564;-122.048;2022-09-09T15:49:49;12.50;12.50;10.75
20371;PMS7003;42924;37.564;-122.048;2022-09-09T15:52:22;11.50;11.50;9.00
20371;PMS7003;42924;37.564;-122.048;2022-09-09T15:54:54;11.75;11.75;10.00
20371;PMS7003;42924;37.564;-122.048;2022-09-09T15:57:24;11.00;11.00;9.00
20371;PMS7003;42924;37.564;-122.048;2022-09-09T15:59:55;15.75;14.00;11.75
20371;PMS7003;42924;37.564;-122.048;2022-09-09T16:02:30;12.00;12.00;10.25
20371;PMS7003;42924;37.564;-122.048;2022-09-09T16:05:01;11.50;11.50;9.75
20371;PMS7003;42924;37.564;-122.048;2022-09-09T16:07:33;11.00;11.00;10.00
20371;PMS7003;42924;37.564;-122.048;2022-09-09T16:10:06;11.50;11.50;10.75
20371;PMS7003;42924;37.564;-122.048;2022-09-09T16:12:39;12.00;12.00;8.75
20371;PMS7003;42924;37.564;-122.048;2022-09-09T16:15:10;9.75;9.75;8.50
20371;PMS7003;42924;37.564;-122.048;2022-09-09T16:17:42;10.75;10.75;8.00
20371;PMS7003;42924;37.564;-122.048;2022-09-09T16:20:15;12.50;12.50;9.75
20371;PMS7003;42924;37.564;-122.048;2022-09-09T16:22:46;11.60;11.20;10.00
20371;PMS7003;42924;37.564;-122.048;2022-09-09T16:25:18;11.50;11.50;10.00
20371;PMS7003;42924;37.564;-122.048;2022-09-09T16:27:50;7.00;7.00;6.60
20371;PMS7003;42924;37.564;-122.048;2022-09-09T16:30:22;11.25;11.00;9.00
20371;PMS7003;42924;37.564;-122.048;2022-09-09T16:32:53;11.00;11.00;8.75
20371;PMS7003;42924;37.564;-122.048;2022-09-09T16:35:26;11.00;11.00;9.25
20371;PMS7003;42924;37.564;-122.048;2022-09-09T16:37:56;9.00;9.00;7.60
20371;PMS7003;42924;37.564;-122.048;2022-09-09T16:40:27;11.25;11.25;9.00
20371;PMS7003;42924;37.564;-122.048;2022-09-09T16:42:59;11.00;11.00;9.75
20371;PMS7003;42924;37.564;-122.048;2022-09-09T16:45:29;13.75;12.50;10.00
20371;PMS7003;42924;37.564;-122.048;2022-09-09T16:48:01;11.50;11.50;8.50
20371;PMS7003;42924;37.564;-122.048;2022-09-09T16:50:31;12.00;12.00;10.25